createdAt,value
2017-08-02T00:00:08.944Z,1011.21
2017-08-02T00:01:08.921Z,1011.24
2017-08-02T00:02:08.907Z,1011.3
2017-08-02T00:03:08.881Z,1011.3
2017-08-02T00:04:08.864Z,1011.3
2017-08-02T00:05:08.844Z,1011.3
2017-08-02T00:06:09.030Z,1011.35
2017-08-02T00:07:08.803Z,1011.34
2017-08-02T00:08:08.776Z,1011.35
2017-08-02T00:09:08.759Z,1011.34
2017-08-02T00:10:08.739Z,1011.37
2017-08-02T00:11:08.718Z,1011.34
2017-08-02T00:12:08.699Z,1011.41
2017-08-02T00:13:08.676Z,1011.32
2017-08-02T00:14:08.657Z,1011.34
2017-08-02T00:15:08.635Z,1011.41
2017-08-02T00:16:08.615Z,1011.36
2017-08-02T00:17:08.595Z,1011.37
2017-08-02T00:18:08.580Z,1011.37
2017-08-02T00:19:08.804Z,1011.35
2017-08-02T00:20:08.538Z,1011.34
2017-08-02T00:21:08.518Z,1011.38
2017-08-02T00:22:08.495Z,1011.29
2017-08-02T00:23:08.484Z,1011.33
2017-08-02T00:24:08.458Z,1011.32
2017-08-02T00:25:08.432Z,1011.31
2017-08-02T00:26:08.413Z,1011.34
2017-08-02T00:27:08.393Z,1011.31
2017-08-02T00:28:08.372Z,1011.3
2017-08-02T00:29:08.355Z,1011.29
2017-08-02T00:30:08.332Z,1011.31
2017-08-02T00:31:08.314Z,1011.3
2017-08-02T00:32:08.291Z,1011.32
2017-08-02T00:33:08.270Z,1011.3
2017-08-02T00:34:08.248Z,1011.27
2017-08-02T00:35:08.233Z,1011.21
2017-08-02T00:36:08.212Z,1011.23
2017-08-02T00:37:08.188Z,1011.26
2017-08-02T00:38:08.169Z,1011.25
2017-08-02T00:39:08.149Z,1011.27
2017-08-02T00:40:08.135Z,1011.23
2017-08-02T00:41:08.114Z,1011.26
2017-08-02T00:42:08.088Z,1011.27
2017-08-02T00:43:08.069Z,1011.21
2017-08-02T00:44:08.046Z,1011.15
2017-08-02T00:45:08.026Z,1011.16
2017-08-02T00:46:08.006Z,1011.1
2017-08-02T00:47:07.985Z,1011.1
2017-08-02T00:48:07.962Z,1011.11
2017-08-02T00:49:07.947Z,1011.08
2017-08-02T00:50:07.925Z,1011.06
2017-08-02T00:51:07.905Z,1011.1
2017-08-02T00:52:07.878Z,1011.11
2017-08-02T00:53:07.862Z,1011.09
2017-08-02T00:54:07.842Z,1011.06
2017-08-02T00:55:07.819Z,1011.02
2017-08-02T00:56:07.801Z,1010.98
2017-08-02T00:57:07.779Z,1010.99
2017-08-02T00:58:07.761Z,1011
2017-08-02T00:59:07.741Z,1011.02
2017-08-02T01:00:07.725Z,1011
2017-08-02T01:01:07.699Z,1010.98
2017-08-02T01:02:07.687Z,1010.99
2017-08-02T01:03:07.658Z,1010.96
2017-08-02T01:04:07.641Z,1010.97
2017-08-02T01:05:07.621Z,1010.99
2017-08-02T01:06:07.599Z,1010.97
2017-08-02T01:07:07.581Z,1010.94
2017-08-02T01:08:07.559Z,1010.92
2017-08-02T01:09:07.538Z,1010.96
2017-08-02T01:10:07.520Z,1010.93
2017-08-02T01:11:07.495Z,1011.01
2017-08-02T01:12:07.476Z,1011
2017-08-02T01:13:07.453Z,1010.94
2017-08-02T01:14:07.436Z,1010.94
2017-08-02T01:15:07.419Z,1010.93
2017-08-02T01:16:07.396Z,1010.94
2017-08-02T01:17:07.378Z,1010.91
2017-08-02T01:18:07.360Z,1010.91
2017-08-02T01:19:07.334Z,1010.93
2017-08-02T01:20:07.337Z,1010.99
2017-08-02T01:21:07.291Z,1011.03
2017-08-02T01:22:07.272Z,1011.08
2017-08-02T01:23:07.251Z,1011.11
2017-08-02T01:24:07.230Z,1011.1
2017-08-02T01:25:07.209Z,1011.13
2017-08-02T01:26:07.191Z,1011.06
2017-08-02T01:27:07.174Z,1011.12
2017-08-02T01:28:07.147Z,1011.1
2017-08-02T01:29:07.127Z,1011.13
2017-08-02T01:30:07.108Z,1011.14
2017-08-02T01:31:07.087Z,1011.1
2017-08-02T01:32:07.065Z,1011.1
2017-08-02T01:33:07.046Z,1011.14
2017-08-02T01:34:07.077Z,1011.11
2017-08-02T01:35:07.004Z,1011.1
2017-08-02T01:36:06.983Z,1011.08
2017-08-02T01:37:06.964Z,1011.08
2017-08-02T01:38:06.945Z,1011.05
2017-08-02T01:39:06.923Z,1011.05
2017-08-02T01:40:06.903Z,1011.08
2017-08-02T01:41:06.883Z,1011.08
2017-08-02T01:42:06.861Z,1011.05
2017-08-02T01:43:06.892Z,1011.05
2017-08-02T01:44:06.822Z,1011.01
2017-08-02T01:45:06.802Z,1011.02
2017-08-02T01:46:06.781Z,1011
2017-08-02T01:47:06.760Z,1011.02
2017-08-02T01:48:06.740Z,1011.04
2017-08-02T01:49:06.719Z,1011.04
2017-08-02T01:50:06.698Z,1011.02
2017-08-02T01:51:06.682Z,1011.06
2017-08-02T01:52:06.657Z,1011.08
2017-08-02T01:53:06.637Z,1011.08
2017-08-02T01:54:06.628Z,1011.15
2017-08-02T01:55:06.606Z,1011.18
2017-08-02T01:56:06.575Z,1011.11
2017-08-02T01:57:06.558Z,1011.17
2017-08-02T01:58:06.533Z,1011.19
2017-08-02T01:59:06.515Z,1011.21
2017-08-02T02:00:06.494Z,1011.18
2017-08-02T02:01:06.473Z,1011.18
2017-08-02T02:02:06.453Z,1011.19
2017-08-02T02:03:06.436Z,1011.11
2017-08-02T02:04:06.408Z,1011.11
2017-08-02T02:05:06.391Z,1011.06
2017-08-02T02:06:06.370Z,1011.12
2017-08-02T02:07:06.351Z,1011.11
2017-08-02T02:08:06.330Z,1011.14
2017-08-02T02:09:06.309Z,1011.15
2017-08-02T02:10:06.294Z,1011.16
2017-08-02T02:11:06.268Z,1011.11
2017-08-02T02:12:06.249Z,1011.17
2017-08-02T02:13:06.229Z,1011.23
2017-08-02T02:14:06.214Z,1011.21
2017-08-02T02:15:06.187Z,1011.21
2017-08-02T02:16:06.166Z,1011.23
2017-08-02T02:17:06.145Z,1011.22
2017-08-02T02:18:06.126Z,1011.2
2017-08-02T02:19:06.107Z,1011.22
2017-08-02T02:20:06.083Z,1011.21
2017-08-02T02:21:06.063Z,1011.17
2017-08-02T02:22:06.044Z,1011.16
2017-08-02T02:23:06.024Z,1011.16
2017-08-02T02:24:06.001Z,1011.11
2017-08-02T02:25:05.984Z,1011.07
2017-08-02T02:26:05.964Z,1011
2017-08-02T02:27:05.947Z,1010.91
2017-08-02T02:28:05.920Z,1010.88
2017-08-02T02:29:05.900Z,1010.94
2017-08-02T02:30:05.878Z,1010.98
2017-08-02T02:31:05.863Z,1010.93
2017-08-02T02:32:05.839Z,1010.94
2017-08-02T02:33:05.820Z,1010.96
2017-08-02T02:34:05.798Z,1010.95
2017-08-02T02:35:05.777Z,1010.88
2017-08-02T02:36:05.758Z,1010.85
2017-08-02T02:37:05.737Z,1010.85
2017-08-02T02:38:05.718Z,1010.9
2017-08-02T02:39:05.695Z,1010.91
2017-08-02T02:40:05.677Z,1010.96
2017-08-02T02:41:05.711Z,1010.99
2017-08-02T02:42:05.633Z,1011.01
2017-08-02T02:43:05.616Z,1010.94
2017-08-02T02:44:05.594Z,1010.91
2017-08-02T02:45:05.576Z,1010.88
2017-08-02T02:46:05.551Z,1010.83
2017-08-02T02:47:05.533Z,1010.8
2017-08-02T02:48:05.515Z,1010.79
2017-08-02T02:49:05.492Z,1010.82
2017-08-02T02:50:05.473Z,1010.89
2017-08-02T02:51:05.450Z,1010.91
2017-08-02T02:52:05.429Z,1010.9
2017-08-02T02:53:05.412Z,1010.91
2017-08-02T02:54:05.394Z,1010.89
2017-08-02T02:55:05.368Z,1010.86
2017-08-02T02:56:05.346Z,1010.84
2017-08-02T02:57:05.333Z,1010.88
2017-08-02T02:58:05.307Z,1010.83
2017-08-02T02:59:05.286Z,1010.91
2017-08-02T03:00:05.266Z,1010.94
2017-08-02T03:01:05.245Z,1010.94
2017-08-02T03:02:05.226Z,1010.98
2017-08-02T03:03:05.205Z,1011.03
2017-08-02T03:04:05.184Z,1011.02
2017-08-02T03:05:05.164Z,1011.06
2017-08-02T03:06:05.143Z,1011.11
2017-08-02T03:07:05.122Z,1011.07
2017-08-02T03:08:05.103Z,1011.16
2017-08-02T03:09:05.082Z,1011.13
2017-08-02T03:10:05.061Z,1011.15
2017-08-02T03:11:05.042Z,1011.07
2017-08-02T03:12:05.024Z,1011.05
2017-08-02T03:13:05.003Z,1011.03
2017-08-02T03:14:04.980Z,1011.06
2017-08-02T03:15:04.964Z,1011.11
2017-08-02T03:16:04.943Z,1011.17
2017-08-02T03:17:04.969Z,1011.21
2017-08-02T03:18:04.897Z,1011.24
2017-08-02T03:19:04.877Z,1011.27
2017-08-02T03:20:04.858Z,1011.25
2017-08-02T03:21:04.835Z,1011.25
2017-08-02T03:22:04.818Z,1011.26
2017-08-02T03:23:04.804Z,1011.21
2017-08-02T03:24:04.775Z,1011.19
2017-08-02T03:25:04.755Z,1011.18
2017-08-02T03:26:04.731Z,1011.1
2017-08-02T03:27:04.714Z,1011.07
2017-08-02T03:28:04.692Z,1011.01
2017-08-02T03:29:04.671Z,1010.95
2017-08-02T03:30:04.653Z,1010.9
2017-08-02T03:31:04.639Z,1010.92
2017-08-02T03:32:04.610Z,1010.89
2017-08-02T03:33:04.591Z,1010.95
2017-08-02T03:34:04.575Z,1010.98
2017-08-02T03:35:04.554Z,1010.99
2017-08-02T03:36:04.530Z,1011
2017-08-02T03:37:04.508Z,1011.04
2017-08-02T03:38:04.489Z,1011.05
2017-08-02T03:39:04.468Z,1011.11
2017-08-02T03:40:04.449Z,1011.15
2017-08-02T03:41:04.480Z,1011.11
2017-08-02T03:42:04.406Z,1011.12
2017-08-02T03:43:04.383Z,1011.02
2017-08-02T03:44:04.368Z,1010.96
2017-08-02T03:45:04.344Z,1010.88
2017-08-02T03:46:04.321Z,1010.85
2017-08-02T03:47:04.308Z,1010.83
2017-08-02T03:48:04.286Z,1010.84
2017-08-02T03:49:04.265Z,1010.83
2017-08-02T03:50:04.246Z,1010.85
2017-08-02T03:51:04.221Z,1010.86
2017-08-02T03:52:04.201Z,1010.87
2017-08-02T03:53:04.186Z,1010.86
2017-08-02T03:54:04.165Z,1010.91
2017-08-02T03:55:04.138Z,1010.91
2017-08-02T03:56:04.125Z,1010.93
2017-08-02T03:57:04.097Z,1010.9
2017-08-02T03:58:04.076Z,1010.93
2017-08-02T03:59:04.055Z,1010.89
2017-08-02T04:00:04.042Z,1010.89
2017-08-02T04:01:04.014Z,1010.88
2017-08-02T04:02:03.995Z,1010.94
2017-08-02T04:03:03.976Z,1010.95
2017-08-02T04:04:03.957Z,1010.89
2017-08-02T04:05:03.937Z,1010.93
2017-08-02T04:06:03.916Z,1010.91
2017-08-02T04:07:03.892Z,1010.86
2017-08-02T04:08:03.874Z,1010.85
2017-08-02T04:09:03.851Z,1010.87
2017-08-02T04:10:03.836Z,1010.83
2017-08-02T04:11:03.811Z,1010.89
2017-08-02T04:12:03.792Z,1010.89
2017-08-02T04:13:03.769Z,1010.91
2017-08-02T04:14:03.749Z,1010.85
2017-08-02T04:15:03.745Z,1010.88
2017-08-02T04:16:03.708Z,1010.91
2017-08-02T04:17:03.687Z,1010.94
2017-08-02T04:18:03.668Z,1010.96
2017-08-02T04:19:03.747Z,1010.96
2017-08-02T04:20:03.625Z,1010.95
2017-08-02T04:21:03.607Z,1010.94
2017-08-02T04:22:03.587Z,1010.95
2017-08-02T04:23:03.566Z,1010.95
2017-08-02T04:24:03.565Z,1010.95
2017-08-02T04:25:03.524Z,1010.94
2017-08-02T04:26:03.507Z,1011
2017-08-02T04:27:03.485Z,1011.02
2017-08-02T04:28:03.462Z,1011.01
2017-08-02T04:29:03.443Z,1011.07
2017-08-02T04:30:03.421Z,1011.06
2017-08-02T04:31:03.400Z,1011.1
2017-08-02T04:32:03.381Z,1011.02
2017-08-02T04:33:03.362Z,1011.04
2017-08-02T04:34:03.338Z,1011.12
2017-08-02T04:35:03.319Z,1011.15
2017-08-02T04:36:03.298Z,1011.14
2017-08-02T04:37:03.281Z,1011.15
2017-08-02T04:38:03.258Z,1011.14
2017-08-02T04:39:03.238Z,1011.16
2017-08-02T04:40:03.216Z,1011.15
2017-08-02T04:41:03.246Z,1011.16
2017-08-02T04:42:03.178Z,1011.15
2017-08-02T04:43:03.156Z,1011.25
2017-08-02T04:44:03.138Z,1011.08
2017-08-02T04:45:03.122Z,1011.15
2017-08-02T04:46:03.095Z,1011.09
2017-08-02T04:47:03.075Z,1011.06
2017-08-02T04:48:03.055Z,1011.05
2017-08-02T04:49:03.035Z,1011.01
2017-08-02T04:50:03.063Z,1010.99
2017-08-02T04:51:02.995Z,1010.99
2017-08-02T04:52:02.975Z,1010.97
2017-08-02T04:53:02.954Z,1010.96
2017-08-02T04:54:02.934Z,1010.97
2017-08-02T04:55:02.914Z,1010.99
2017-08-02T04:56:02.898Z,1010.98
2017-08-02T04:57:02.873Z,1010.97
2017-08-02T04:58:02.851Z,1010.98
2017-08-02T04:59:02.835Z,1010.99
2017-08-02T05:00:02.811Z,1010.98
2017-08-02T05:01:02.792Z,1011.02
2017-08-02T05:02:02.772Z,1011.05
2017-08-02T05:03:02.753Z,1011.08
2017-08-02T05:04:02.731Z,1011.09
2017-08-02T05:05:02.712Z,1011.07
2017-08-02T05:06:02.693Z,1011.14
2017-08-02T05:07:02.673Z,1011.12
2017-08-02T05:08:02.651Z,1011.11
2017-08-02T05:09:02.632Z,1011.12
2017-08-02T05:10:02.612Z,1011.09
2017-08-02T05:11:02.592Z,1011.07
2017-08-02T05:12:02.573Z,1011.02
2017-08-02T05:13:02.551Z,1010.99
2017-08-02T05:14:02.532Z,1010.97
2017-08-02T05:15:02.516Z,1010.94
2017-08-02T05:16:02.495Z,1010.91
2017-08-02T05:17:02.474Z,1010.9
2017-08-02T05:18:02.503Z,1010.9
2017-08-02T05:19:02.434Z,1010.86
2017-08-02T05:20:02.413Z,1010.86
2017-08-02T05:21:02.389Z,1010.92
2017-08-02T05:22:02.370Z,1010.89
2017-08-02T05:23:02.353Z,1010.89
2017-08-02T05:24:02.329Z,1010.95
2017-08-02T05:25:02.324Z,1010.95
2017-08-02T05:26:02.290Z,1010.95
2017-08-02T05:27:02.271Z,1011.04
2017-08-02T05:28:02.251Z,1011.07
2017-08-02T05:29:02.230Z,1011.1
2017-08-02T05:30:02.211Z,1011.07
2017-08-02T05:31:02.193Z,1011.08
2017-08-02T05:32:02.176Z,1011.09
2017-08-02T05:33:02.151Z,1011.08
2017-08-02T05:34:02.130Z,1011.15
2017-08-02T05:35:02.108Z,1011.15
2017-08-02T05:36:02.089Z,1011.21
2017-08-02T05:37:02.069Z,1011.19
2017-08-02T05:38:02.049Z,1011.22
2017-08-02T05:39:02.030Z,1011.18
2017-08-02T05:40:02.010Z,1011.18
2017-08-02T05:41:01.991Z,1011.12
2017-08-02T05:42:01.970Z,1011.01
2017-08-02T05:43:01.950Z,1011.02
2017-08-02T05:44:01.929Z,1011.01
2017-08-02T05:45:01.915Z,1011.03
2017-08-02T05:46:01.893Z,1011.09
2017-08-02T05:47:01.870Z,1011.12
2017-08-02T05:48:01.851Z,1011.21
2017-08-02T05:49:01.835Z,1011.2
2017-08-02T05:50:01.810Z,1011.23
2017-08-02T05:51:01.791Z,1011.22
2017-08-02T05:52:01.773Z,1011.26
2017-08-02T05:53:01.752Z,1011.28
2017-08-02T05:54:01.732Z,1011.33
2017-08-02T05:55:01.712Z,1011.34
2017-08-02T05:56:01.693Z,1011.36
2017-08-02T05:57:01.676Z,1011.35
2017-08-02T05:58:01.657Z,1011.38
2017-08-02T05:59:01.635Z,1011.29
2017-08-02T06:00:01.615Z,1011.32
2017-08-02T06:01:01.596Z,1011.3
2017-08-02T06:02:01.574Z,1011.34
2017-08-02T06:03:01.557Z,1011.35
2017-08-02T06:04:01.534Z,1011.36
2017-08-02T06:05:01.516Z,1011.39
2017-08-02T06:06:01.496Z,1011.37
2017-08-02T06:07:01.477Z,1011.43
2017-08-02T06:08:01.462Z,1011.41
2017-08-02T06:09:01.437Z,1011.35
2017-08-02T06:10:01.418Z,1011.37
2017-08-02T06:11:01.399Z,1011.38
2017-08-02T06:12:01.380Z,1011.4
2017-08-02T06:13:01.360Z,1011.42
2017-08-02T06:14:01.341Z,1011.36
2017-08-02T06:15:01.321Z,1011.38
2017-08-02T06:16:01.326Z,1011.43
2017-08-02T06:17:01.284Z,1011.4
2017-08-02T06:18:01.264Z,1011.46
2017-08-02T06:19:01.243Z,1011.45
2017-08-02T06:20:01.228Z,1011.44
2017-08-02T06:21:01.207Z,1011.45
2017-08-02T06:22:01.187Z,1011.38
2017-08-02T06:23:01.171Z,1011.4
2017-08-02T06:24:01.155Z,1011.33
2017-08-02T06:25:01.130Z,1011.3
2017-08-02T06:26:01.107Z,1011.3
2017-08-02T06:27:01.141Z,1011.31
2017-08-02T06:28:01.093Z,1011.3
2017-08-02T06:29:01.055Z,1011.38
2017-08-02T06:30:01.036Z,1011.44
2017-08-02T06:31:01.010Z,1011.48
2017-08-02T06:32:00.993Z,1011.46
2017-08-02T06:33:00.975Z,1011.45
2017-08-02T06:34:00.955Z,1011.4
2017-08-02T06:35:00.937Z,1011.36
2017-08-02T06:36:00.918Z,1011.33
2017-08-02T06:37:00.899Z,1011.3
2017-08-02T06:38:00.879Z,1011.29
2017-08-02T06:39:00.861Z,1011.32
2017-08-02T06:40:00.842Z,1011.3
2017-08-02T06:41:00.824Z,1011.28
2017-08-02T06:42:00.803Z,1011.3
2017-08-02T06:43:00.784Z,1011.32
2017-08-02T06:44:00.815Z,1011.35
2017-08-02T06:45:00.747Z,1011.35
2017-08-02T06:46:00.730Z,1011.44
2017-08-02T06:47:00.713Z,1011.42
2017-08-02T06:48:00.691Z,1011.41
2017-08-02T06:49:00.722Z,1011.4
2017-08-02T06:50:00.655Z,1011.33
2017-08-02T06:51:00.636Z,1011.35
2017-08-02T06:52:00.617Z,1011.3
2017-08-02T06:53:00.598Z,1011.29
2017-08-02T06:54:00.580Z,1011.28
2017-08-02T06:55:00.562Z,1011.22
2017-08-02T06:56:00.544Z,1011.25
2017-08-02T06:57:00.525Z,1011.24
2017-08-02T06:58:00.506Z,1011.25
2017-08-02T06:59:00.489Z,1011.25
2017-08-02T07:00:00.475Z,1011.25
2017-08-02T07:01:00.453Z,1011.22
2017-08-02T07:02:00.437Z,1011.19
2017-08-02T07:03:00.415Z,1011.23
2017-08-02T07:04:00.397Z,1011.2
2017-08-02T07:05:00.421Z,1011.19
2017-08-02T07:06:00.360Z,1011.19
2017-08-02T07:07:00.343Z,1011.23
2017-08-02T07:08:00.325Z,1011.27
2017-08-02T07:09:00.305Z,1011.31
2017-08-02T07:10:00.285Z,1011.34
2017-08-02T07:11:00.270Z,1011.33
2017-08-02T07:12:00.252Z,1011.3
2017-08-02T07:13:00.240Z,1011.28
2017-08-02T07:14:00.216Z,1011.26
2017-08-02T07:15:00.191Z,1011.23
2017-08-02T07:16:00.179Z,1011.2
2017-08-02T07:17:00.160Z,1011.18
2017-08-02T07:18:00.140Z,1011.17
2017-08-02T07:19:00.133Z,1011.2
2017-08-02T07:20:00.104Z,1011.18
2017-08-02T07:21:00.089Z,1011.16
2017-08-02T07:22:00.068Z,1011.14
2017-08-02T07:23:00.055Z,1011.15
2017-08-02T07:24:00.036Z,1011.14
2017-08-02T07:25:00.016Z,1011.12
2017-08-02T07:25:59.997Z,1011.11
2017-08-02T07:26:59.982Z,1011.12
2017-08-02T07:27:59.959Z,1011.12
2017-08-02T07:28:59.948Z,1011.11
2017-08-02T07:29:59.926Z,1011.18
2017-08-02T07:30:59.909Z,1011.13
2017-08-02T07:31:59.942Z,1011.11
2017-08-02T07:32:59.873Z,1011.15
2017-08-02T07:33:59.853Z,1011.22
2017-08-02T07:34:59.837Z,1011.22
2017-08-02T07:35:59.823Z,1011.2
2017-08-02T07:36:59.803Z,1011.21
2017-08-02T07:37:59.787Z,1011.24
2017-08-02T07:38:59.774Z,1011.27
2017-08-02T07:39:59.758Z,1011.3
2017-08-02T07:40:59.739Z,1011.37
2017-08-02T07:41:59.731Z,1011.31
2017-08-02T07:42:59.712Z,1011.26
2017-08-02T07:43:59.697Z,1011.24
2017-08-02T07:44:59.675Z,1011.26
2017-08-02T07:45:59.663Z,1011.18
2017-08-02T07:46:59.648Z,1011.2
2017-08-02T07:47:59.629Z,1011.19
2017-08-02T07:48:59.613Z,1011.19
2017-08-02T07:49:59.597Z,1011.23
2017-08-02T07:50:59.580Z,1011.25
2017-08-02T07:51:59.565Z,1011.27
2017-08-02T07:52:59.600Z,1011.31
2017-08-02T07:53:59.537Z,1011.27
2017-08-02T07:54:59.520Z,1011.26
2017-08-02T07:55:59.503Z,1011.25
2017-08-02T07:56:59.489Z,1011.24
2017-08-02T07:57:59.471Z,1011.18
2017-08-02T07:58:59.455Z,1011.24
2017-08-02T07:59:59.440Z,1011.2
2017-08-02T08:00:59.424Z,1011.16
2017-08-02T08:01:59.412Z,1011.18
2017-08-02T08:02:59.394Z,1011.2
2017-08-02T08:03:59.385Z,1011.23
2017-08-02T08:04:59.368Z,1011.15
2017-08-02T08:05:59.349Z,1011.11
2017-08-02T08:06:59.334Z,1011.09
2017-08-02T08:07:59.320Z,1011.09
2017-08-02T08:08:59.305Z,1011.12
2017-08-02T08:09:59.288Z,1011.07
2017-08-02T08:10:59.272Z,1011.14
2017-08-02T08:11:59.257Z,1011.13
2017-08-02T08:12:59.242Z,1011.2
2017-08-02T08:13:59.236Z,1011.15
2017-08-02T08:14:59.212Z,1011.23
2017-08-02T08:15:59.199Z,1011.15
2017-08-02T08:16:59.177Z,1011.13
2017-08-02T08:17:59.164Z,1011.11
2017-08-02T08:18:59.150Z,1011.09
2017-08-02T08:19:59.132Z,1011.14
2017-08-02T08:20:59.124Z,1011.11
2017-08-02T08:21:59.101Z,1011.06
2017-08-02T08:22:59.086Z,1011.12
2017-08-02T08:23:59.071Z,1011.11
2017-08-02T08:24:59.059Z,1011.13
2017-08-02T08:25:59.042Z,1011.1
2017-08-02T08:26:59.023Z,1011.13
2017-08-02T08:27:59.008Z,1011.17
2017-08-02T08:28:58.993Z,1011.17
2017-08-02T08:29:58.977Z,1011.17
2017-08-02T08:30:58.966Z,1011.15
2017-08-02T08:31:58.945Z,1011.16
2017-08-02T08:32:58.936Z,1011.17
2017-08-02T08:33:58.916Z,1011.16
2017-08-02T08:34:58.900Z,1011.12
2017-08-02T08:35:58.886Z,1011.13
2017-08-02T08:36:58.871Z,1011.09
2017-08-02T08:37:58.855Z,1011.14
2017-08-02T08:38:58.845Z,1011.15
2017-08-02T08:39:58.829Z,1011.16
2017-08-02T08:40:58.814Z,1011.16
2017-08-02T08:41:58.799Z,1011.18
2017-08-02T08:42:58.784Z,1011.22
2017-08-02T08:43:58.769Z,1011.23
2017-08-02T08:44:58.756Z,1011.25
2017-08-02T08:45:58.743Z,1011.23
2017-08-02T08:46:58.729Z,1011.27
2017-08-02T08:47:58.714Z,1011.26
2017-08-02T08:48:58.702Z,1011.29
2017-08-02T08:49:58.687Z,1011.26
2017-08-02T08:50:58.676Z,1011.31
2017-08-02T08:51:58.661Z,1011.33
2017-08-02T08:52:58.653Z,1011.32
2017-08-02T08:53:58.632Z,1011.36
2017-08-02T08:54:58.620Z,1011.38
2017-08-02T08:55:58.612Z,1011.44
2017-08-02T08:56:58.591Z,1011.48
2017-08-02T08:57:58.580Z,1011.57
2017-08-02T08:58:58.560Z,1011.51
2017-08-02T08:59:58.555Z,1011.48
2017-08-02T09:00:58.535Z,1011.46
2017-08-02T09:01:58.516Z,1011.43
2017-08-02T09:02:58.505Z,1011.47
2017-08-02T09:03:58.492Z,1011.45
2017-08-02T09:04:58.477Z,1011.49
2017-08-02T09:05:58.461Z,1011.47
2017-08-02T09:06:58.447Z,1011.53
2017-08-02T09:07:58.429Z,1011.49
2017-08-02T09:08:58.413Z,1011.5
2017-08-02T09:09:58.403Z,1011.5
2017-08-02T09:10:58.385Z,1011.47
2017-08-02T09:11:58.367Z,1011.45
2017-08-02T09:12:58.355Z,1011.44
2017-08-02T09:13:58.336Z,1011.47
2017-08-02T09:14:58.321Z,1011.44
2017-08-02T09:15:58.305Z,1011.48
2017-08-02T09:16:58.293Z,1011.44
2017-08-02T09:17:58.276Z,1011.49
2017-08-02T09:18:58.259Z,1011.48
2017-08-02T09:19:58.245Z,1011.52
2017-08-02T09:20:58.229Z,1011.47
2017-08-02T09:21:58.212Z,1011.47
2017-08-02T09:22:58.204Z,1011.42
2017-08-02T09:23:58.184Z,1011.39
2017-08-02T09:24:58.169Z,1011.37
2017-08-02T09:25:58.154Z,1011.34
2017-08-02T09:26:58.138Z,1011.38
2017-08-02T09:27:58.119Z,1011.36
2017-08-02T09:28:58.108Z,1011.42
2017-08-02T09:29:58.396Z,1011.46
2017-08-02T09:30:58.079Z,1011.39
2017-08-02T09:31:58.060Z,1011.37
2017-08-02T09:32:58.045Z,1011.39
2017-08-02T09:33:58.029Z,1011.37
2017-08-02T09:34:58.011Z,1011.29
2017-08-02T09:35:57.997Z,1011.31
2017-08-02T09:36:57.983Z,1011.28
2017-08-02T09:37:57.963Z,1011.29
2017-08-02T09:38:57.956Z,1011.33
2017-08-02T09:39:57.938Z,1011.36
2017-08-02T09:40:57.935Z,1011.4
2017-08-02T09:41:57.910Z,1011.5
2017-08-02T09:42:57.899Z,1011.46
2017-08-02T09:43:57.880Z,1011.42
2017-08-02T09:44:57.869Z,1011.41
2017-08-02T09:45:57.855Z,1011.48
2017-08-02T09:46:57.846Z,1011.5
2017-08-02T09:47:57.827Z,1011.51
2017-08-02T09:48:57.814Z,1011.51
2017-08-02T09:49:57.801Z,1011.56
2017-08-02T09:50:57.788Z,1011.48
2017-08-02T09:51:57.772Z,1011.5
2017-08-02T09:52:57.758Z,1011.52
2017-08-02T09:53:57.745Z,1011.59
2017-08-02T09:54:57.732Z,1011.61
2017-08-02T09:55:57.716Z,1011.68
2017-08-02T09:56:57.737Z,1011.64
2017-08-02T09:57:57.689Z,1011.66
2017-08-02T09:58:57.676Z,1011.68
2017-08-02T09:59:57.662Z,1011.74
2017-08-02T10:00:57.680Z,1011.62
2017-08-02T10:01:57.637Z,1011.62
2017-08-02T10:02:57.620Z,1011.57
2017-08-02T10:03:57.611Z,1011.57
2017-08-02T10:04:57.600Z,1011.51
2017-08-02T10:05:57.639Z,1011.64
2017-08-02T10:06:57.577Z,1011.64
2017-08-02T10:07:57.568Z,1011.69
2017-08-02T10:08:57.555Z,1011.69
2017-08-02T10:09:57.550Z,1011.74
2017-08-02T10:10:57.537Z,1011.71
2017-08-02T10:11:57.526Z,1011.71
2017-08-02T10:12:57.514Z,1011.75
2017-08-02T10:13:57.508Z,1011.76
2017-08-02T10:14:57.497Z,1011.79
2017-08-02T10:15:57.486Z,1011.79
2017-08-02T10:16:57.475Z,1011.79
2017-08-02T10:17:57.464Z,1011.84
2017-08-02T10:18:57.454Z,1011.81
2017-08-02T10:19:57.445Z,1011.82
2017-08-02T10:20:57.434Z,1011.83
2017-08-02T10:21:57.425Z,1011.81
2017-08-02T10:22:57.414Z,1011.82
2017-08-02T10:23:57.407Z,1011.86
2017-08-02T10:24:57.392Z,1011.87
2017-08-02T10:25:57.379Z,1011.87
2017-08-02T10:26:57.371Z,1011.9
2017-08-02T10:27:57.360Z,1011.88
2017-08-02T10:28:57.350Z,1011.81
2017-08-02T10:29:57.338Z,1011.75
2017-08-02T10:30:57.325Z,1011.71
2017-08-02T10:31:57.317Z,1011.68
2017-08-02T10:32:57.306Z,1011.77
2017-08-02T10:33:57.297Z,1011.84
2017-08-02T10:34:57.587Z,1011.84
2017-08-02T10:35:57.278Z,1011.81
2017-08-02T10:36:57.267Z,1011.8
2017-08-02T10:37:57.255Z,1011.75
2017-08-02T10:38:57.248Z,1011.71
2017-08-02T10:39:57.237Z,1011.64
2017-08-02T10:40:57.226Z,1011.76
2017-08-02T10:41:57.215Z,1011.8
2017-08-02T10:42:57.205Z,1011.86
2017-08-02T10:43:57.193Z,1011.81
2017-08-02T10:44:57.181Z,1011.85
2017-08-02T10:45:57.174Z,1011.89
2017-08-02T10:46:57.158Z,1011.83
2017-08-02T10:47:57.148Z,1011.84
2017-08-02T10:48:57.134Z,1011.89
2017-08-02T10:49:57.133Z,1011.88
2017-08-02T10:50:57.109Z,1011.91
2017-08-02T10:51:57.099Z,1011.91
2017-08-02T10:52:57.087Z,1011.97
2017-08-02T10:53:57.073Z,1011.96
2017-08-02T10:54:57.071Z,1011.99
2017-08-02T10:55:57.049Z,1011.98
2017-08-02T10:56:57.036Z,1011.99
2017-08-02T10:57:57.021Z,1012.02
2017-08-02T10:58:57.008Z,1011.93
2017-08-02T10:59:56.997Z,1011.92
2017-08-02T11:00:56.984Z,1011.96
2017-08-02T11:01:56.965Z,1011.9
2017-08-02T11:02:56.960Z,1011.94
2017-08-02T11:03:56.940Z,1011.98
2017-08-02T11:04:56.970Z,1012.01
2017-08-02T11:05:57.164Z,1012.01
2017-08-02T11:06:56.904Z,1011.99
2017-08-02T11:07:56.889Z,1011.99
2017-08-02T11:08:56.874Z,1011.9
2017-08-02T11:09:56.861Z,1011.94
2017-08-02T11:10:56.848Z,1012
2017-08-02T11:11:57.055Z,1011.98
2017-08-02T11:12:56.821Z,1011.96
2017-08-02T11:13:56.809Z,1011.97
2017-08-02T11:14:56.796Z,1011.91
2017-08-02T11:15:56.784Z,1011.89
2017-08-02T11:16:56.769Z,1011.89
2017-08-02T11:17:56.756Z,1011.88
2017-08-02T11:18:56.750Z,1011.94
2017-08-02T11:19:56.730Z,1011.94
2017-08-02T11:20:56.719Z,1011.9
2017-08-02T11:21:56.705Z,1011.89
2017-08-02T11:22:56.695Z,1011.82
2017-08-02T11:23:56.676Z,1011.88
2017-08-02T11:24:56.664Z,1011.95
2017-08-02T11:25:56.652Z,1011.95
2017-08-02T11:26:56.636Z,1011.92
2017-08-02T11:27:56.628Z,1011.9
2017-08-02T11:28:56.610Z,1011.9
2017-08-02T11:29:56.601Z,1011.94
2017-08-02T11:30:56.583Z,1012
2017-08-02T11:31:56.571Z,1011.99
2017-08-02T11:32:56.562Z,1011.94
2017-08-02T11:33:56.544Z,1011.92
2017-08-02T11:34:56.531Z,1011.88
2017-08-02T11:35:56.516Z,1011.88
2017-08-02T11:36:56.524Z,1011.93
2017-08-02T11:37:56.739Z,1011.96
2017-08-02T11:38:56.473Z,1011.92
2017-08-02T11:39:56.461Z,1011.93
2017-08-02T11:40:56.446Z,1011.97
2017-08-02T11:41:56.435Z,1011.98
2017-08-02T11:42:56.420Z,1011.94
2017-08-02T11:43:56.408Z,1011.97
2017-08-02T11:44:56.390Z,1011.96
2017-08-02T11:45:56.376Z,1011.94
2017-08-02T11:46:56.365Z,1011.98
2017-08-02T11:47:56.367Z,1011.91
2017-08-02T11:48:56.340Z,1011.9
2017-08-02T11:49:56.322Z,1011.88
2017-08-02T11:50:56.314Z,1011.89
2017-08-02T11:51:56.298Z,1011.89
2017-08-02T11:52:56.283Z,1011.92
2017-08-02T11:53:56.268Z,1011.92
2017-08-02T11:54:56.254Z,1011.86
2017-08-02T11:55:56.240Z,1011.85
2017-08-02T11:56:56.222Z,1011.88
2017-08-02T11:57:56.209Z,1011.93
2017-08-02T11:58:56.194Z,1011.9
2017-08-02T11:59:56.177Z,1011.9
2017-08-02T12:00:56.167Z,1011.89
2017-08-02T12:01:56.200Z,1011.92
2017-08-02T12:02:56.138Z,1011.86
2017-08-02T12:03:56.125Z,1011.87
2017-08-02T12:04:56.106Z,1011.87
2017-08-02T12:05:56.096Z,1011.85
2017-08-02T12:06:56.077Z,1011.84
2017-08-02T12:07:56.212Z,1011.85